sensor_id;sensor_type;location;lat;lon;timestamp;P1;P2;P0
70691;PMS5003;58267;51.156;17.044;2023-05-10T00:01:53;18;17;
70691;PMS5003;58267;51.156;17.044;2023-05-10T00:04:18;19;19;
70691;PMS5003;58267;51.156;17.044;2023-05-10T00:06:43;21;21;
70691;PMS5003;58267;51.156;17.044;2023-05-10T00:09:09;21;20;
70691;PMS5003;58267;51.156;17.044;2023-05-10T00:11:35;19;19;
70691;PMS5003;58267;51.156;17.044;2023-05-10T00:14:00;21;21;
70691;PMS5003;58267;51.156;17.044;2023-05-10T00:16:25;22;21;
70691;PMS5003;58267;51.156;17.044;2023-05-10T00:18:51;26;23;
70691;PMS5003;58267;51.156;17.044;2023-05-10T00:21:16;20;19;
70691;PMS5003;58267;51.156;17.044;2023-05-10T00:23:41;22;21;
70691;PMS5003;58267;51.156;17.044;2023-05-10T00:26:07;20;19;
70691;PMS5003;58267;51.156;17.044;2023-05-10T00:28:32;21;21;
70691;PMS5003;58267;51.156;17.044;2023-05-10T00:30:58;20;19;
70691;PMS5003;58267;51.156;17.044;2023-05-10T00:33:23;21;20;
70691;PMS5003;58267;51.156;17.044;2023-05-10T00:35:49;17;17;
70691;PMS5003;58267;51.156;17.044;2023-05-10T00:38:14;18;18;
70691;PMS5003;58267;51.156;17.044;2023-05-10T00:40:40;22;22;
70691;PMS5003;58267;51.156;17.044;2023-05-10T00:43:06;23;22;
70691;PMS5003;58267;51.156;17.044;2023-05-10T00:45:31;20;19;
70691;PMS5003;58267;51.156;17.044;2023-05-10T00:47:56;19;19;
70691;PMS5003;58267;51.156;17.044;2023-05-10T00:50:22;22;21;
70691;PMS5003;58267;51.156;17.044;2023-05-10T00:52:47;21;19;
70691;PMS5003;58267;51.156;17.044;2023-05-10T00:55:12;19;19;
70691;PMS5003;58267;51.156;17.044;2023-05-10T00:57:38;26;23;
70691;PMS5003;58267;51.156;17.044;2023-05-10T01:00:04;22;21;
70691;PMS5003;58267;51.156;17.044;2023-05-10T01:02:29;22;22;
70691;PMS5003;58267;51.156;17.044;2023-05-10T01:04:55;21;21;
70691;PMS5003;58267;51.156;17.044;2023-05-10T01:07:21;21;21;
70691;PMS5003;58267;51.156;17.044;2023-05-10T01:09:46;24;22;
70691;PMS5003;58267;51.156;17.044;2023-05-10T01:12:11;23;23;
70691;PMS5003;58267;51.156;17.044;2023-05-10T01:14:37;24;23;
70691;PMS5003;58267;51.156;17.044;2023-05-10T01:17:03;21;20;
70691;PMS5003;58267;51.156;17.044;2023-05-10T01:19:29;26;25;
70691;PMS5003;58267;51.156;17.044;2023-05-10T01:21:56;21;20;
70691;PMS5003;58267;51.156;17.044;2023-05-10T01:26:50;21;21;
70691;PMS5003;58267;51.156;17.044;2023-05-10T01:29:14;24;23;
70691;PMS5003;58267;51.156;17.044;2023-05-10T01:34:02;19;19;
70691;PMS5003;58267;51.156;17.044;2023-05-10T01:36:29;29;27;
70691;PMS5003;58267;51.156;17.044;2023-05-10T01:38:54;23;23;
70691;PMS5003;58267;51.156;17.044;2023-05-10T01:41:18;21;20;
70691;PMS5003;58267;51.156;17.044;2023-05-10T01:43:45;23;22;
70691;PMS5003;58267;51.156;17.044;2023-05-10T01:46:10;24;24;
70691;PMS5003;58267;51.156;17.044;2023-05-10T01:48:34;24;23;
70691;PMS5003;58267;51.156;17.044;2023-05-10T01:51:00;22;21;
70691;PMS5003;58267;51.156;17.044;2023-05-10T01:53:26;21;21;
70691;PMS5003;58267;51.156;17.044;2023-05-10T01:55:52;24;22;
70691;PMS5003;58267;51.156;17.044;2023-05-10T01:58:20;22;22;
70691;PMS5003;58267;51.156;17.044;2023-05-10T02:00:44;22;20;
70691;PMS5003;58267;51.156;17.044;2023-05-10T02:03:08;25;25;
70691;PMS5003;58267;51.156;17.044;2023-05-10T02:05:34;26;22;
70691;PMS5003;58267;51.156;17.044;2023-05-10T02:07:59;24;23;
70691;PMS5003;58267;51.156;17.044;2023-05-10T02:10:24;20;20;
70691;PMS5003;58267;51.156;17.044;2023-05-10T02:12:50;24;22;
70691;PMS5003;58267;51.156;17.044;2023-05-10T02:15:18;23;22;
70691;PMS5003;58267;51.156;17.044;2023-05-10T02:17:41;25;25;
70691;PMS5003;58267;51.156;17.044;2023-05-10T02:20:07;27;23;
70691;PMS5003;58267;51.156;17.044;2023-05-10T02:22:32;24;23;
70691;PMS5003;58267;51.156;17.044;2023-05-10T02:24:58;24;22;
70691;PMS5003;58267;51.156;17.044;2023-05-10T02:27:24;29;26;
70691;PMS5003;58267;51.156;17.044;2023-05-10T02:29:50;25;24;
70691;PMS5003;58267;51.156;17.044;2023-05-10T02:32:15;26;26;
70691;PMS5003;58267;51.156;17.044;2023-05-10T02:34:40;25;24;
70691;PMS5003;58267;51.156;17.044;2023-05-10T02:37:06;23;22;
70691;PMS5003;58267;51.156;17.044;2023-05-10T02:39:32;25;23;
70691;PMS5003;58267;51.156;17.044;2023-05-10T02:41:57;23;20;
70691;PMS5003;58267;51.156;17.044;2023-05-10T02:44:23;22;21;
70691;PMS5003;58267;51.156;17.044;2023-05-10T02:46:48;26;24;
70691;PMS5003;58267;51.156;17.044;2023-05-10T02:49:14;23;22;
70691;PMS5003;58267;51.156;17.044;2023-05-10T02:51:40;25;24;
70691;PMS5003;58267;51.156;17.044;2023-05-10T02:54:07;25;22;
70691;PMS5003;58267;51.156;17.044;2023-05-10T02:56:31;28;27;
70691;PMS5003;58267;51.156;17.044;2023-05-10T02:58:56;23;23;
70691;PMS5003;58267;51.156;17.044;2023-05-10T03:01:21;23;22;
70691;PMS5003;58267;51.156;17.044;2023-05-10T03:03:47;26;24;
70691;PMS5003;58267;51.156;17.044;2023-05-10T03:06:12;25;23;
70691;PMS5003;58267;51.156;17.044;2023-05-10T03:08:38;26;25;
70691;PMS5003;58267;51.156;17.044;2023-05-10T03:11:09;26;23;
70691;PMS5003;58267;51.156;17.044;2023-05-10T03:13:31;24;22;
70691;PMS5003;58267;51.156;17.044;2023-05-10T03:15:55;25;25;
70691;PMS5003;58267;51.156;17.044;2023-05-10T03:18:21;20;20;
70691;PMS5003;58267;51.156;17.044;2023-05-10T03:20:46;25;23;
70691;PMS5003;58267;51.156;17.044;2023-05-10T03:23:12;25;23;
70691;PMS5003;58267;51.156;17.044;2023-05-10T03:25:35;22;22;
70691;PMS5003;58267;51.156;17.044;2023-05-10T03:28:01;25;25;
70691;PMS5003;58267;51.156;17.044;2023-05-10T03:30:26;26;25;
70691;PMS5003;58267;51.156;17.044;2023-05-10T03:32:51;21;20;
70691;PMS5003;58267;51.156;17.044;2023-05-10T03:35:16;24;24;
70691;PMS5003;58267;51.156;17.044;2023-05-10T03:37:42;24;23;
70691;PMS5003;58267;51.156;17.044;2023-05-10T03:40:08;28;27;
70691;PMS5003;58267;51.156;17.044;2023-05-10T03:42:33;22;22;
70691;PMS5003;58267;51.156;17.044;2023-05-10T03:44:58;24;24;
70691;PMS5003;58267;51.156;17.044;2023-05-10T03:47:24;24;22;
70691;PMS5003;58267;51.156;17.044;2023-05-10T03:49:49;24;23;
70691;PMS5003;58267;51.156;17.044;2023-05-10T03:52:14;22;22;
70691;PMS5003;58267;51.156;17.044;2023-05-10T03:54:40;22;22;
70691;PMS5003;58267;51.156;17.044;2023-05-10T03:57:05;28;26;
70691;PMS5003;58267;51.156;17.044;2023-05-10T03:59:30;22;22;
70691;PMS5003;58267;51.156;17.044;2023-05-10T04:01:56;27;25;
70691;PMS5003;58267;51.156;17.044;2023-05-10T04:04:22;24;24;
70691;PMS5003;58267;51.156;17.044;2023-05-10T04:06:47;24;23;
70691;PMS5003;58267;51.156;17.044;2023-05-10T04:09:13;24;24;
70691;PMS5003;58267;51.156;17.044;2023-05-10T04:11:38;29;28;
70691;PMS5003;58267;51.156;17.044;2023-05-10T04:14:03;29;28;
70691;PMS5003;58267;51.156;17.044;2023-05-10T04:16:28;25;24;
70691;PMS5003;58267;51.156;17.044;2023-05-10T04:18:53;25;24;
70691;PMS5003;58267;51.156;17.044;2023-05-10T04:21:18;25;24;
70691;PMS5003;58267;51.156;17.044;2023-05-10T04:23:44;25;23;
70691;PMS5003;58267;51.156;17.044;2023-05-10T04:26:10;22;21;
70691;PMS5003;58267;51.156;17.044;2023-05-10T04:28:35;26;25;
70691;PMS5003;58267;51.156;17.044;2023-05-10T04:31:01;26;25;
70691;PMS5003;58267;51.156;17.044;2023-05-10T04:33:26;24;23;
70691;PMS5003;58267;51.156;17.044;2023-05-10T04:35:51;23;23;
70691;PMS5003;58267;51.156;17.044;2023-05-10T04:38:17;28;24;
70691;PMS5003;58267;51.156;17.044;2023-05-10T04:40:42;27;24;
70691;PMS5003;58267;51.156;17.044;2023-05-10T04:43:08;27;27;
70691;PMS5003;58267;51.156;17.044;2023-05-10T04:45:33;29;28;
70691;PMS5003;58267;51.156;17.044;2023-05-10T04:47:59;22;22;
70691;PMS5003;58267;51.156;17.044;2023-05-10T04:50:25;22;21;
70691;PMS5003;58267;51.156;17.044;2023-05-10T04:52:50;26;26;
70691;PMS5003;58267;51.156;17.044;2023-05-10T04:55:16;27;27;
70691;PMS5003;58267;51.156;17.044;2023-05-10T04:57:42;27;24;
70691;PMS5003;58267;51.156;17.044;2023-05-10T05:00:08;21;20;
70691;PMS5003;58267;51.156;17.044;2023-05-10T05:02:33;25;24;
70691;PMS5003;58267;51.156;17.044;2023-05-10T05:04:59;19;19;
70691;PMS5003;58267;51.156;17.044;2023-05-10T05:07:25;18;17;
70691;PMS5003;58267;51.156;17.044;2023-05-10T05:09:51;24;22;
70691;PMS5003;58267;51.156;17.044;2023-05-10T05:12:16;23;22;
70691;PMS5003;58267;51.156;17.044;2023-05-10T05:14:42;23;23;
70691;PMS5003;58267;51.156;17.044;2023-05-10T05:17:08;20;19;
70691;PMS5003;58267;51.156;17.044;2023-05-10T05:19:33;21;19;
70691;PMS5003;58267;51.156;17.044;2023-05-10T05:21:59;22;21;
70691;PMS5003;58267;51.156;17.044;2023-05-10T05:24:28;17;17;
70691;PMS5003;58267;51.156;17.044;2023-05-10T05:26:53;19;18;
70691;PMS5003;58267;51.156;17.044;2023-05-10T05:29:19;17;17;
70691;PMS5003;58267;51.156;17.044;2023-05-10T05:31:45;18;17;
70691;PMS5003;58267;51.156;17.044;2023-05-10T05:34:11;20;18;
70691;PMS5003;58267;51.156;17.044;2023-05-10T05:36:36;34;32;
70691;PMS5003;58267;51.156;17.044;2023-05-10T05:39:02;39;38;
70691;PMS5003;58267;51.156;17.044;2023-05-10T05:41:28;35;34;
70691;PMS5003;58267;51.156;17.044;2023-05-10T05:43:53;18;16;
70691;PMS5003;58267;51.156;17.044;2023-05-10T05:46:19;20;19;
70691;PMS5003;58267;51.156;17.044;2023-05-10T05:48:44;19;18;
70691;PMS5003;58267;51.156;17.044;2023-05-10T05:51:09;24;23;
70691;PMS5003;58267;51.156;17.044;2023-05-10T05:53:35;17;16;
70691;PMS5003;58267;51.156;17.044;2023-05-10T05:56:01;27;26;
70691;PMS5003;58267;51.156;17.044;2023-05-10T05:58:26;17;17;
70691;PMS5003;58267;51.156;17.044;2023-05-10T06:00:51;20;19;
70691;PMS5003;58267;51.156;17.044;2023-05-10T06:03:17;20;19;
70691;PMS5003;58267;51.156;17.044;2023-05-10T06:05:42;23;22;
70691;PMS5003;58267;51.156;17.044;2023-05-10T06:08:08;17;17;
70691;PMS5003;58267;51.156;17.044;2023-05-10T06:10:33;17;17;
70691;PMS5003;58267;51.156;17.044;2023-05-10T06:12:58;16;16;
70691;PMS5003;58267;51.156;17.044;2023-05-10T06:15:24;22;20;
70691;PMS5003;58267;51.156;17.044;2023-05-10T06:17:49;17;16;
70691;PMS5003;58267;51.156;17.044;2023-05-10T06:20:14;18;16;
70691;PMS5003;58267;51.156;17.044;2023-05-10T06:22:40;16;16;
70691;PMS5003;58267;51.156;17.044;2023-05-10T06:25:05;17;17;
70691;PMS5003;58267;51.156;17.044;2023-05-10T06:27:31;16;16;
70691;PMS5003;58267;51.156;17.044;2023-05-10T06:29:57;24;22;
70691;PMS5003;58267;51.156;17.044;2023-05-10T06:32:22;17;16;
70691;PMS5003;58267;51.156;17.044;2023-05-10T06:34:48;15;15;
70691;PMS5003;58267;51.156;17.044;2023-05-10T06:37:13;14;14;
70691;PMS5003;58267;51.156;17.044;2023-05-10T06:39:38;22;19;
70691;PMS5003;58267;51.156;17.044;2023-05-10T06:42:04;17;16;
70691;PMS5003;58267;51.156;17.044;2023-05-10T06:44:29;15;13;
70691;PMS5003;58267;51.156;17.044;2023-05-10T06:46:55;16;15;
70691;PMS5003;58267;51.156;17.044;2023-05-10T06:49:20;21;21;
70691;PMS5003;58267;51.156;17.044;2023-05-10T06:51:45;16;15;
70691;PMS5003;58267;51.156;17.044;2023-05-10T06:54:10;13;12;
70691;PMS5003;58267;51.156;17.044;2023-05-10T06:56:35;15;14;
70691;PMS5003;58267;51.156;17.044;2023-05-10T06:59:01;15;14;
70691;PMS5003;58267;51.156;17.044;2023-05-10T07:01:27;15;14;
70691;PMS5003;58267;51.156;17.044;2023-05-10T07:03:52;14;13;
70691;PMS5003;58267;51.156;17.044;2023-05-10T07:06:18;14;14;
70691;PMS5003;58267;51.156;17.044;2023-05-10T07:08:43;14;14;
70691;PMS5003;58267;51.156;17.044;2023-05-10T07:11:08;16;14;
70691;PMS5003;58267;51.156;17.044;2023-05-10T07:13:34;14;14;
70691;PMS5003;58267;51.156;17.044;2023-05-10T07:16:00;13;13;
70691;PMS5003;58267;51.156;17.044;2023-05-10T07:18:25;11;11;
70691;PMS5003;58267;51.156;17.044;2023-05-10T07:20:50;11;11;
70691;PMS5003;58267;51.156;17.044;2023-05-10T07:23:15;12;12;
70691;PMS5003;58267;51.156;17.044;2023-05-10T07:25:40;14;14;
70691;PMS5003;58267;51.156;17.044;2023-05-10T07:28:06;11;11;
70691;PMS5003;58267;51.156;17.044;2023-05-10T07:30:31;11;11;
70691;PMS5003;58267;51.156;17.044;2023-05-10T07:32:57;12;12;
70691;PMS5003;58267;51.156;17.044;2023-05-10T07:35:22;10;10;
70691;PMS5003;58267;51.156;17.044;2023-05-10T07:37:47;12;12;
70691;PMS5003;58267;51.156;17.044;2023-05-10T07:40:12;10;9;
70691;PMS5003;58267;51.156;17.044;2023-05-10T07:42:38;11;10;
70691;PMS5003;58267;51.156;17.044;2023-05-10T07:45:03;14;14;
70691;PMS5003;58267;51.156;17.044;2023-05-10T07:47:28;14;13;
70691;PMS5003;58267;51.156;17.044;2023-05-10T07:49:54;15;15;
70691;PMS5003;58267;51.156;17.044;2023-05-10T07:52:19;59;55;
70691;PMS5003;58267;51.156;17.044;2023-05-10T07:54:44;57;55;
70691;PMS5003;58267;51.156;17.044;2023-05-10T07:57:10;23;22;
70691;PMS5003;58267;51.156;17.044;2023-05-10T07:59:35;20;20;
70691;PMS5003;58267;51.156;17.044;2023-05-10T08:02:01;24;22;
70691;PMS5003;58267;51.156;17.044;2023-05-10T08:04:26;14;14;
70691;PMS5003;58267;51.156;17.044;2023-05-10T08:06:52;17;17;
70691;PMS5003;58267;51.156;17.044;2023-05-10T08:09:18;26;25;
70691;PMS5003;58267;51.156;17.044;2023-05-10T08:11:44;27;26;
70691;PMS5003;58267;51.156;17.044;2023-05-10T08:14:09;21;21;
70691;PMS5003;58267;51.156;17.044;2023-05-10T08:16:35;14;14;
70691;PMS5003;58267;51.156;17.044;2023-05-10T08:19:00;31;28;
70691;PMS5003;58267;51.156;17.044;2023-05-10T08:21:25;115;107;
70691;PMS5003;58267;51.156;17.044;2023-05-10T08:23:50;76;70;
70691;PMS5003;58267;51.156;17.044;2023-05-10T08:26:16;65;59;
70691;PMS5003;58267;51.156;17.044;2023-05-10T08:28:41;46;43;
70691;PMS5003;58267;51.156;17.044;2023-05-10T08:31:07;29;29;
70691;PMS5003;58267;51.156;17.044;2023-05-10T08:33:32;23;22;
70691;PMS5003;58267;51.156;17.044;2023-05-10T08:35:58;35;35;
70691;PMS5003;58267;51.156;17.044;2023-05-10T08:38:23;17;17;
70691;PMS5003;58267;51.156;17.044;2023-05-10T08:40:49;25;25;
70691;PMS5003;58267;51.156;17.044;2023-05-10T08:43:14;24;22;
70691;PMS5003;58267;51.156;17.044;2023-05-10T08:45:42;17;16;
70691;PMS5003;58267;51.156;17.044;2023-05-10T08:48:06;16;15;
70691;PMS5003;58267;51.156;17.044;2023-05-10T08:50:31;13;12;
70691;PMS5003;58267;51.156;17.044;2023-05-10T08:52:57;19;18;
70691;PMS5003;58267;51.156;17.044;2023-05-10T08:55:21;21;21;
70691;PMS5003;58267;51.156;17.044;2023-05-10T08:57:47;16;16;
70691;PMS5003;58267;51.156;17.044;2023-05-10T09:00:13;12;12;
70691;PMS5003;58267;51.156;17.044;2023-05-10T09:02:38;18;18;
70691;PMS5003;58267;51.156;17.044;2023-05-10T09:05:03;12;12;
70691;PMS5003;58267;51.156;17.044;2023-05-10T09:07:28;14;14;
70691;PMS5003;58267;51.156;17.044;2023-05-10T09:09:53;14;14;
70691;PMS5003;58267;51.156;17.044;2023-05-10T09:12:18;15;15;
70691;PMS5003;58267;51.156;17.044;2023-05-10T09:14:44;17;16;
70691;PMS5003;58267;51.156;17.044;2023-05-10T09:17:09;11;11;
70691;PMS5003;58267;51.156;17.044;2023-05-10T09:19:34;15;13;
70691;PMS5003;58267;51.156;17.044;2023-05-10T09:22:00;17;16;
70691;PMS5003;58267;51.156;17.044;2023-05-10T09:24:25;13;13;
70691;PMS5003;58267;51.156;17.044;2023-05-10T09:26:50;14;13;
70691;PMS5003;58267;51.156;17.044;2023-05-10T09:29:15;13;13;
70691;PMS5003;58267;51.156;17.044;2023-05-10T09:31:44;12;12;
70691;PMS5003;58267;51.156;17.044;2023-05-10T09:34:06;11;11;
70691;PMS5003;58267;51.156;17.044;2023-05-10T09:36:31;13;12;
70691;PMS5003;58267;51.156;17.044;2023-05-10T09:38:57;10;10;
70691;PMS5003;58267;51.156;17.044;2023-05-10T09:41:23;12;12;
70691;PMS5003;58267;51.156;17.044;2023-05-10T09:43:48;13;13;
70691;PMS5003;58267;51.156;17.044;2023-05-10T09:46:13;14;14;
70691;PMS5003;58267;51.156;17.044;2023-05-10T09:48:41;11;11;
70691;PMS5003;58267;51.156;17.044;2023-05-10T09:51:03;14;12;
70691;PMS5003;58267;51.156;17.044;2023-05-10T09:53:29;13;13;
70691;PMS5003;58267;51.156;17.044;2023-05-10T09:55:54;14;14;
70691;PMS5003;58267;51.156;17.044;2023-05-10T09:58:19;13;13;
70691;PMS5003;58267;51.156;17.044;2023-05-10T10:00:45;12;12;
70691;PMS5003;58267;51.156;17.044;2023-05-10T10:03:12;13;13;
70691;PMS5003;58267;51.156;17.044;2023-05-10T10:05:35;12;12;
70691;PMS5003;58267;51.156;17.044;2023-05-10T10:08:03;13;12;
70691;PMS5003;58267;51.156;17.044;2023-05-10T10:10:25;13;13;
70691;PMS5003;58267;51.156;17.044;2023-05-10T10:12:50;10;10;
70691;PMS5003;58267;51.156;17.044;2023-05-10T10:15:15;9;9;
70691;PMS5003;58267;51.156;17.044;2023-05-10T10:17:41;13;13;
70691;PMS5003;58267;51.156;17.044;2023-05-10T10:20:07;10;10;
70691;PMS5003;58267;51.156;17.044;2023-05-10T10:24:57;14;13;
70691;PMS5003;58267;51.156;17.044;2023-05-10T10:27:23;13;13;
70691;PMS5003;58267;51.156;17.044;2023-05-10T10:29:51;14;13;
70691;PMS5003;58267;51.156;17.044;2023-05-10T10:32:19;11;11;
70691;PMS5003;58267;51.156;17.044;2023-05-10T10:34:39;11;11;
70691;PMS5003;58267;51.156;17.044;2023-05-10T10:37:04;10;10;
70691;PMS5003;58267;51.156;17.044;2023-05-10T10:39:29;11;10;
70691;PMS5003;58267;51.156;17.044;2023-05-10T10:41:55;11;11;
70691;PMS5003;58267;51.156;17.044;2023-05-10T10:49:10;11;11;
70691;PMS5003;58267;51.156;17.044;2023-05-10T10:51:36;9;9;
70691;PMS5003;58267;51.156;17.044;2023-05-10T10:56:25;11;11;
70691;PMS5003;58267;51.156;17.044;2023-05-10T10:58:51;10;10;
70691;PMS5003;58267;51.156;17.044;2023-05-10T11:01:16;11;11;
70691;PMS5003;58267;51.156;17.044;2023-05-10T11:03:55;10;10;
70691;PMS5003;58267;51.156;17.044;2023-05-10T11:06:06;11;11;
70691;PMS5003;58267;51.156;17.044;2023-05-10T11:08:32;14;14;
70691;PMS5003;58267;51.156;17.044;2023-05-10T11:15:47;13;13;
70691;PMS5003;58267;51.156;17.044;2023-05-10T11:18:16;11;10;
70691;PMS5003;58267;51.156;17.044;2023-05-10T11:20:38;12;12;
70691;PMS5003;58267;51.156;17.044;2023-05-10T11:25:28;12;12;
70691;PMS5003;58267;51.156;17.044;2023-05-10T11:27:54;14;14;
70691;PMS5003;58267;51.156;17.044;2023-05-10T11:30:20;14;13;
70691;PMS5003;58267;51.156;17.044;2023-05-10T11:32:47;13;13;
70691;PMS5003;58267;51.156;17.044;2023-05-10T11:35:13;14;14;
70691;PMS5003;58267;51.156;17.044;2023-05-10T11:37:38;12;12;
70691;PMS5003;58267;51.156;17.044;2023-05-10T11:40:04;13;13;
70691;PMS5003;58267;51.156;17.044;2023-05-10T11:42:29;9;9;
70691;PMS5003;58267;51.156;17.044;2023-05-10T11:44:55;16;16;
70691;PMS5003;58267;51.156;17.044;2023-05-10T11:47:20;14;13;
70691;PMS5003;58267;51.156;17.044;2023-05-10T11:49:45;14;13;
70691;PMS5003;58267;51.156;17.044;2023-05-10T11:52:10;13;13;
70691;PMS5003;58267;51.156;17.044;2023-05-10T11:54:36;11;10;
70691;PMS5003;58267;51.156;17.044;2023-05-10T11:57:01;12;12;
70691;PMS5003;58267;51.156;17.044;2023-05-10T11:59:26;11;11;
70691;PMS5003;58267;51.156;17.044;2023-05-10T12:01:51;12;12;
70691;PMS5003;58267;51.156;17.044;2023-05-10T12:04:16;12;12;
70691;PMS5003;58267;51.156;17.044;2023-05-10T12:06:42;21;20;
70691;PMS5003;58267;51.156;17.044;2023-05-10T12:09:08;15;14;
70691;PMS5003;58267;51.156;17.044;2023-05-10T12:11:36;14;12;
70691;PMS5003;58267;51.156;17.044;2023-05-10T12:13:59;15;14;
70691;PMS5003;58267;51.156;17.044;2023-05-10T12:16:25;12;12;
70691;PMS5003;58267;51.156;17.044;2023-05-10T12:18:50;14;14;
70691;PMS5003;58267;51.156;17.044;2023-05-10T12:21:15;9;9;
70691;PMS5003;58267;51.156;17.044;2023-05-10T12:23:40;11;11;
70691;PMS5003;58267;51.156;17.044;2023-05-10T12:26:06;8;8;
70691;PMS5003;58267;51.156;17.044;2023-05-10T12:28:31;9;9;
70691;PMS5003;58267;51.156;17.044;2023-05-10T12:30:57;10;10;
70691;PMS5003;58267;51.156;17.044;2023-05-10T12:33:22;9;9;
70691;PMS5003;58267;51.156;17.044;2023-05-10T12:35:48;9;9;
70691;PMS5003;58267;51.156;17.044;2023-05-10T12:40:38;10;10;
70691;PMS5003;58267;51.156;17.044;2023-05-10T12:43:03;9;8;
70691;PMS5003;58267;51.156;17.044;2023-05-10T12:45:28;10;10;
70691;PMS5003;58267;51.156;17.044;2023-05-10T12:47:53;8;8;
70691;PMS5003;58267;51.156;17.044;2023-05-10T12:50:19;11;11;
70691;PMS5003;58267;51.156;17.044;2023-05-10T12:52:44;9;9;
70691;PMS5003;58267;51.156;17.044;2023-05-10T12:55:09;9;9;
70691;PMS5003;58267;51.156;17.044;2023-05-10T12:57:34;9;9;
70691;PMS5003;58267;51.156;17.044;2023-05-10T12:59:59;11;10;
70691;PMS5003;58267;51.156;17.044;2023-05-10T13:02:24;9;9;
70691;PMS5003;58267;51.156;17.044;2023-05-10T13:04:50;9;9;
70691;PMS5003;58267;51.156;17.044;2023-05-10T13:07:15;9;9;
70691;PMS5003;58267;51.156;17.044;2023-05-10T13:09:40;9;8;
70691;PMS5003;58267;51.156;17.044;2023-05-10T13:12:05;10;10;
70691;PMS5003;58267;51.156;17.044;2023-05-10T13:14:31;10;10;
70691;PMS5003;58267;51.156;17.044;2023-05-10T13:16:55;10;10;
70691;PMS5003;58267;51.156;17.044;2023-05-10T13:19:21;8;8;
70691;PMS5003;58267;51.156;17.044;2023-05-10T13:21:46;9;9;
70691;PMS5003;58267;51.156;17.044;2023-05-10T13:24:11;11;11;
70691;PMS5003;58267;51.156;17.044;2023-05-10T13:26:36;10;10;
70691;PMS5003;58267;51.156;17.044;2023-05-10T13:29:01;8;8;
70691;PMS5003;58267;51.156;17.044;2023-05-10T13:31:27;9;7;
70691;PMS5003;58267;51.156;17.044;2023-05-10T13:33:52;10;10;
70691;PMS5003;58267;51.156;17.044;2023-05-10T13:36:17;9;9;
70691;PMS5003;58267;51.156;17.044;2023-05-10T13:38:42;10;10;
70691;PMS5003;58267;51.156;17.044;2023-05-10T13:41:07;7;7;
70691;PMS5003;58267;51.156;17.044;2023-05-10T13:43:33;11;10;
70691;PMS5003;58267;51.156;17.044;2023-05-10T13:45:58;8;8;
70691;PMS5003;58267;51.156;17.044;2023-05-10T13:48:23;8;8;
70691;PMS5003;58267;51.156;17.044;2023-05-10T13:50:48;8;7;
70691;PMS5003;58267;51.156;17.044;2023-05-10T13:53:13;7;7;
70691;PMS5003;58267;51.156;17.044;2023-05-10T13:55:39;8;8;
70691;PMS5003;58267;51.156;17.044;2023-05-10T13:58:05;9;9;
70691;PMS5003;58267;51.156;17.044;2023-05-10T14:00:30;7;7;
70691;PMS5003;58267;51.156;17.044;2023-05-10T14:02:55;7;7;
70691;PMS5003;58267;51.156;17.044;2023-05-10T14:05:20;6;6;
70691;PMS5003;58267;51.156;17.044;2023-05-10T14:07:45;8;8;
70691;PMS5003;58267;51.156;17.044;2023-05-10T14:10:11;8;7;
70691;PMS5003;58267;51.156;17.044;2023-05-10T14:12:36;8;8;
70691;PMS5003;58267;51.156;17.044;2023-05-10T14:15:01;7;7;
70691;PMS5003;58267;51.156;17.044;2023-05-10T14:17:26;8;8;
70691;PMS5003;58267;51.156;17.044;2023-05-10T14:19:52;8;7;
70691;PMS5003;58267;51.156;17.044;2023-05-10T14:22:16;7;7;
70691;PMS5003;58267;51.156;17.044;2023-05-10T14:24:42;9;9;
70691;PMS5003;58267;51.156;17.044;2023-05-10T14:27:07;4;4;
70691;PMS5003;58267;51.156;17.044;2023-05-10T14:29:32;7;6;
70691;PMS5003;58267;51.156;17.044;2023-05-10T14:31:57;6;6;
70691;PMS5003;58267;51.156;17.044;2023-05-10T14:34:22;7;7;
70691;PMS5003;58267;51.156;17.044;2023-05-10T14:36:48;8;8;
70691;PMS5003;58267;51.156;17.044;2023-05-10T14:39:13;9;9;
70691;PMS5003;58267;51.156;17.044;2023-05-10T14:41:38;8;8;
70691;PMS5003;58267;51.156;17.044;2023-05-10T14:44:03;9;8;
70691;PMS5003;58267;51.156;17.044;2023-05-10T14:46:28;7;7;
70691;PMS5003;58267;51.156;17.044;2023-05-10T14:48:56;11;11;
70691;PMS5003;58267;51.156;17.044;2023-05-10T14:51:21;8;8;
70691;PMS5003;58267;51.156;17.044;2023-05-10T14:53:47;6;6;
70691;PMS5003;58267;51.156;17.044;2023-05-10T14:56:12;10;8;
70691;PMS5003;58267;51.156;17.044;2023-05-10T14:58:37;7;7;
70691;PMS5003;58267;51.156;17.044;2023-05-10T15:01:02;6;6;
70691;PMS5003;58267;51.156;17.044;2023-05-10T15:03:27;6;6;
70691;PMS5003;58267;51.156;17.044;2023-05-10T15:05:53;6;6;
70691;PMS5003;58267;51.156;17.044;2023-05-10T15:08:18;7;7;
70691;PMS5003;58267;51.156;17.044;2023-05-10T15:10:43;8;8;
70691;PMS5003;58267;51.156;17.044;2023-05-10T15:13:08;6;6;
70691;PMS5003;58267;51.156;17.044;2023-05-10T15:15:33;7;7;
70691;PMS5003;58267;51.156;17.044;2023-05-10T15:17:58;8;7;
70691;PMS5003;58267;51.156;17.044;2023-05-10T15:20:24;9;9;
70691;PMS5003;58267;51.156;17.044;2023-05-10T15:22:49;5;5;
70691;PMS5003;58267;51.156;17.044;2023-05-10T15:25:15;8;8;
70691;PMS5003;58267;51.156;17.044;2023-05-10T15:27:40;5;5;
70691;PMS5003;58267;51.156;17.044;2023-05-10T15:30:06;7;7;
70691;PMS5003;58267;51.156;17.044;2023-05-10T15:32:30;5;5;
70691;PMS5003;58267;51.156;17.044;2023-05-10T15:34:55;6;6;
70691;PMS5003;58267;51.156;17.044;2023-05-10T15:37:21;7;7;
70691;PMS5003;58267;51.156;17.044;2023-05-10T15:39:46;8;8;
70691;PMS5003;58267;51.156;17.044;2023-05-10T15:42:11;7;7;
70691;PMS5003;58267;51.156;17.044;2023-05-10T15:44:36;8;7;
70691;PMS5003;58267;51.156;17.044;2023-05-10T15:47:01;6;6;
70691;PMS5003;58267;51.156;17.044;2023-05-10T15:49:27;7;7;
70691;PMS5003;58267;51.156;17.044;2023-05-10T15:51:52;8;7;
70691;PMS5003;58267;51.156;17.044;2023-05-10T15:54:17;7;6;
70691;PMS5003;58267;51.156;17.044;2023-05-10T15:56:42;10;9;
70691;PMS5003;58267;51.156;17.044;2023-05-10T15:59:07;6;6;
70691;PMS5003;58267;51.156;17.044;2023-05-10T16:01:32;9;9;
70691;PMS5003;58267;51.156;17.044;2023-05-10T16:03:58;7;7;
70691;PMS5003;58267;51.156;17.044;2023-05-10T16:06:23;6;6;
70691;PMS5003;58267;51.156;17.044;2023-05-10T16:08:48;9;9;
70691;PMS5003;58267;51.156;17.044;2023-05-10T16:11:13;7;7;
70691;PMS5003;58267;51.156;17.044;2023-05-10T16:13:38;10;9;
70691;PMS5003;58267;51.156;17.044;2023-05-10T16:16:04;8;8;
70691;PMS5003;58267;51.156;17.044;2023-05-10T16:18:29;6;6;
70691;PMS5003;58267;51.156;17.044;2023-05-10T16:20:54;7;6;